Time;durP1;ratioP1;P1;durP2;ratioP2;P2;SDS_P1;SDS_P2;PMS_P1;PMS_P2;Temp;Humidity;BMP_temperature;BMP_pressure;BME280_temperature;BME280_humidity;BME280_pressure;Samples;Min_cycle;Max_cycle;Signal;HPM_P1;HPM_P2
2023/01/20 00:01:11;;;;;;;12.82;2.97;;;;;;;1.01;93.03;101177.56;5036036;28;100293;-28
2023/01/20 00:03:41;;;;;;;7.63;3.42;;;;;;;0.97;92.90;101184.72;5036347;28;96563;-28
2023/01/20 00:06:07;;;;;;;3.40;2.22;;;;;;;1.00;93.67;101181.09;5037756;27;96798;-28
2023/01/20 00:08:33;;;;;;;3.15;2.15;;;;;;;0.99;93.56;101174.91;5035709;28;100895;-28
2023/01/20 00:11:05;;;;;;;3.70;3.00;;;;;;;1.01;93.37;101178.44;5035982;28;100867;-28
2023/01/20 00:13:31;;;;;;;7.93;3.90;;;;;;;1.02;93.37;101184.63;5036151;28;96542;-29
2023/01/20 00:15:57;;;;;;;6.60;2.85;;;;;;;0.99;94.27;101179.34;5036355;28;96777;-29
2023/01/20 00:18:22;;;;;;;7.30;2.72;;;;;;;1.00;93.30;101182.00;5036432;27;99484;-28
2023/01/20 00:20:47;;;;;;;4.88;3.03;;;;;;;1.02;93.00;101181.97;5037238;27;97749;-28
2023/01/20 00:23:13;;;;;;;10.30;2.13;;;;;;;1.01;94.26;101191.75;5037122;27;96769;-28
2023/01/20 00:25:38;;;;;;;2.15;1.92;;;;;;;1.00;94.31;101181.09;5037630;27;96761;-29
2023/01/20 00:28:03;;;;;;;5.45;2.80;;;;;;;0.99;93.96;101188.22;5036901;27;99410;-28
2023/01/20 00:30:29;;;;;;;5.05;3.92;;;;;;;0.98;94.17;101193.63;5037124;28;98013;-30
2023/01/20 00:32:55;;;;;;;6.32;3.28;;;;;;;0.98;93.83;101188.28;5036024;28;96486;-29
2023/01/20 00:35:20;;;;;;;2.50;2.03;;;;;;;1.00;94.00;101191.78;5037910;27;96783;-28
2023/01/20 00:37:45;;;;;;;3.15;2.17;;;;;;;0.99;94.64;101192.69;5036973;27;99676;-28
2023/01/20 00:40:11;;;;;;;5.00;2.55;;;;;;;1.01;95.06;101198.88;5036723;27;107505;-29
2023/01/20 00:42:36;;;;;;;5.95;2.70;;;;;;;0.97;94.43;101192.72;5036694;28;96527;-29
2023/01/20 00:45:02;;;;;;;6.35;2.20;;;;;;;0.99;94.16;101201.56;5038851;27;96787;-29
2023/01/20 00:47:27;;;;;;;5.22;3.67;;;;;;;0.95;93.51;101193.63;5040494;27;97860;-28
2023/01/20 00:49:52;;;;;;;4.63;2.45;;;;;;;0.92;94.55;101188.38;5040167;28;102502;-30
2023/01/20 00:52:18;;;;;;;3.55;2.03;;;;;;;0.97;94.71;101202.50;5040852;28;96514;-29
2023/01/20 00:54:44;;;;;;;6.03;4.10;;;;;;;0.97;94.65;101198.03;5040884;27;96769;-28
2023/01/20 00:57:10;;;;;;;3.35;1.98;;;;;;;0.99;94.03;101196.22;5038813;28;100862;-28
2023/01/20 00:59:35;;;;;;;2.38;1.60;;;;;;;0.98;94.92;101198.94;5039086;28;100902;-28
2023/01/20 01:02:01;;;;;;;4.93;2.60;;;;;;;1.00;95.05;101202.44;5040785;27;96435;-29
2023/01/20 01:04:26;;;;;;;9.95;4.47;;;;;;;1.03;94.64;101207.75;5040498;27;96530;-30
2023/01/20 01:06:51;;;;;;;1.75;1.45;;;;;;;1.03;94.95;101215.75;5039487;27;99250;-28
2023/01/20 01:09:17;;;;;;;2.47;1.60;;;;;;;1.02;94.41;101208.63;5039898;28;99215;-29
2023/01/20 01:11:42;;;;;;;4.05;2.38;;;;;;;1.00;95.29;101218.44;5040337;27;96577;-29
2023/01/20 01:14:08;;;;;;;4.35;2.33;;;;;;;0.99;95.47;101217.56;5040511;28;96765;-28
2023/01/20 01:16:33;;;;;;;2.75;1.83;;;;;;;0.95;95.90;101218.53;5038444;28;101082;-28
2023/01/20 01:18:58;;;;;;;4.47;1.90;;;;;;;0.99;95.88;101220.25;5040127;27;97324;-28
2023/01/20 01:21:24;;;;;;;3.80;1.88;;;;;;;0.99;95.99;101222.03;5040482;27;96595;-30
2023/01/20 01:23:52;;;;;;;8.00;3.53;;;;;;;0.97;95.92;101222.03;5039806;27;96747;-28
2023/01/20 01:26:17;;;;;;;1.17;1.10;;;;;;;0.98;96.21;101228.28;5038231;28;100779;-28
2023/01/20 01:28:45;;;;;;;3.33;2.67;;;;;;;0.94;95.12;101227.44;5039870;27;97796;-29
2023/01/20 01:31:11;;;;;;;1.92;1.58;;;;;;;0.90;96.51;101233.72;5038229;28;96512;-29
2023/01/20 01:33:36;;;;;;;7.82;2.80;;;;;;;0.89;96.83;101231.09;5040117;27;96750;-28
2023/01/20 01:36:03;;;;;;;6.90;1.92;;;;;;;0.90;97.43;101240.84;5039557;27;99390;-28
2023/01/20 01:38:28;;;;;;;5.97;2.00;;;;;;;0.84;97.13;101240.03;5038058;28;99105;-28
2023/01/20 01:40:55;;;;;;;2.80;1.42;;;;;;;0.88;97.22;101242.66;5040055;28;96590;-28
2023/01/20 01:43:27;;;;;;;3.42;2.22;;;;;;;0.84;97.38;101244.50;5038656;28;96797;-29
2023/01/20 01:45:53;;;;;;;3.20;1.92;;;;;;;0.84;98.07;101248.03;5039617;28;97902;-28
2023/01/20 01:48:27;;;;;;;2.72;2.08;;;;;;;0.89;96.95;101260.44;5039680;27;97740;-28
2023/01/20 01:50:57;;;;;;;16.58;3.67;;;;;;;0.88;96.67;101255.97;5038676;28;96579;-29
2023/01/20 01:53:25;;;;;;;3.00;1.60;;;;;;;0.90;96.45;101260.38;5039930;28;96733;-28
2023/01/20 01:55:56;;;;;;;3.03;1.98;;;;;;;0.87;97.00;101260.44;5037025;27;101237;-29
2023/01/20 01:58:28;;;;;;;2.92;1.55;;;;;;;0.85;97.00;101259.56;5038056;28;101047;-28
2023/01/20 02:00:54;;;;;;;;;;;;;;;0.90;96.75;101278.19;5038813;28;96745;-28
2023/01/20 02:03:20;;;;;;;2.08;1.45;;;;;;;0.93;95.72;101267.44;5039638;28;96638;-30
2023/01/20 02:05:49;;;;;;;4.35;2.13;;;;;;;0.88;95.74;101263.97;5037521;28;101027;-29
2023/01/20 02:08:14;;;;;;;1.70;1.48;;;;;;;0.89;95.64;101263.09;5038991;27;97256;-30
2023/01/20 02:10:39;;;;;;;7.47;2.70;;;;;;;0.89;96.29;101261.31;5039768;27;96698;-28
2023/01/20 02:13:05;;;;;;;2.97;1.98;;;;;;;0.89;96.36;101261.31;5040026;27;96742;-29
2023/01/20 02:15:41;;;;;;;3.17;1.90;;;;;;;0.84;97.54;101266.69;5038991;27;97845;-28
2023/01/20 02:18:50;;;;;;;3.08;1.67;;;;;;;0.85;97.80;101268.44;5037278;28;100868;-28
2023/01/20 02:21:38;;;;;;;1.55;1.23;;;;;;;0.86;97.92;101269.34;4990832;28;96724;-28
2023/01/20 02:24:16;;;;;;;1.52;1.27;;;;;;;0.87;97.84;101256.91;5038983;27;96866;-28
2023/01/20 02:26:57;;;;;;;2.95;2.15;;;;;;;0.87;97.82;101256.91;5037474;28;101020;-28
2023/01/20 02:29:44;;;;;;;2.47;1.80;;;;;;;0.87;97.57;101252.44;5039141;27;97789;-29
2023/01/20 02:32:18;;;;;;;2.00;1.23;;;;;;;0.86;97.79;101256.03;5039482;28;96567;-28
2023/01/20 02:34:43;;;;;;;3.80;1.88;;;;;;;0.85;97.31;101256.91;5037607;28;96697;-29
2023/01/20 02:37:23;;;;;;;1.90;1.70;;;;;;;0.83;97.85;101253.38;5038798;28;98019;-28
2023/01/20 02:40:03;;;;;;;1.98;1.80;;;;;;;0.88;97.31;101258.66;5037644;28;100865;-28
2023/01/20 02:42:32;;;;;;;2.55;2.15;;;;;;;0.88;97.03;101263.97;5037757;28;96639;-28
2023/01/20 02:45:12;;;;;;;3.95;2.25;;;;;;;0.87;96.52;101251.56;5037690;28;96860;-28
2023/01/20 02:47:47;;;;;;;3.88;1.77;;;;;;;0.87;96.86;101255.09;5036709;28;101085;-28
2023/01/20 02:50:20;;;;;;;4.63;3.15;;;;;;;0.88;96.55;101247.97;5036936;28;101057;-29
2023/01/20 02:52:50;;;;;;;2.15;1.40;;;;;;;0.88;96.68;101250.66;5039261;27;96451;-30
2023/01/20 02:55:34;;;;;;;3.55;2.13;;;;;;;0.88;96.68;101245.31;5037387;28;96609;-28
2023/01/20 02:58:05;;;;;;;4.65;2.83;;;;;;;0.90;96.42;101240.84;5036951;28;100458;-30
2023/01/20 03:00:35;;;;;;;1.75;1.45;;;;;;;0.92;95.94;101245.25;5037069;28;100765;-28
2023/01/20 03:03:07;;;;;;;6.15;1.90;;;;;;;0.90;95.99;101241.72;5037453;28;96672;-28
2023/01/20 03:05:36;;;;;;;6.65;1.77;;;;;;;0.89;96.81;101245.31;5037876;28;96683;-29
2023/01/20 03:08:06;;;;;;;3.20;1.83;;;;;;;0.93;96.25;101251.44;5035804;28;101194;-28
2023/01/20 03:10:35;;;;;;;3.40;2.38;;;;;;;0.91;96.03;101240.81;5020056;28;102122;-29
2023/01/20 03:13:21;;;;;;;3.05;1.92;;;;;;;0.94;96.15;101254.09;5036607;28;96566;-28
2023/01/20 03:16:00;;;;;;;3.85;2.50;;;;;;;0.93;97.25;101243.44;5037154;28;96743;-30
2023/01/20 03:18:28;;;;;;;5.88;2.83;;;;;;;0.95;96.90;101253.19;5036771;28;101477;-30
2023/01/20 03:20:53;;;;;;;12.00;2.63;;;;;;;0.97;96.52;101248.72;5036558;28;100922;-30
2023/01/20 03:23:19;;;;;;;6.03;2.47;;;;;;;1.01;95.54;101246.91;5036245;28;96918;-28
2023/01/20 03:25:46;;;;;;;3.15;2.35;;;;;;;0.97;95.71;101240.72;5038607;28;96772;-28
2023/01/20 03:28:12;;;;;;;3.10;2.80;;;;;;;0.96;95.87;101238.97;5036441;28;101069;-29
2023/01/20 03:30:37;;;;;;;6.78;3.03;;;;;;;0.98;95.94;101247.84;5036715;28;99105;-29
2023/01/20 03:33:03;;;;;;;3.17;2.58;;;;;;;0.98;96.30;101241.63;5038363;27;96427;-29
2023/01/20 03:35:29;;;;;;;3.10;2.60;;;;;;;0.96;96.14;101243.44;5038189;27;96630;-28
2023/01/20 03:37:54;;;;;;;4.82;2.85;;;;;;;0.95;96.04;101242.53;5037195;28;99503;-30
2023/01/20 03:40:24;;;;;;;4.15;1.92;;;;;;;0.93;96.53;101248.78;5037912;27;97063;-29
2023/01/20 03:43:00;;;;;;;3.17;2.72;;;;;;;0.92;96.79;101241.69;5036787;28;96659;-28
2023/01/20 03:45:32;;;;;;;3.10;2.15;;;;;;;0.97;96.76;101250.50;5036897;28;96710;-29
2023/01/20 03:48:15;;;;;;;6.75;3.97;;;;;;;0.96;96.63;101249.63;5036089;28;101110;-29
2023/01/20 03:50:59;;;;;;;4.03;2.30;;;;;;;0.97;96.13;101253.19;5036286;28;100523;-29
2023/01/20 03:53:53;;;;;;;2.97;2.20;;;;;;;0.94;96.33;101246.09;5036719;28;96779;-29
2023/01/20 03:56:22;;;;;;;3.15;2.25;;;;;;;0.97;96.31;101250.50;5037019;28;96794;-30
2023/01/20 03:58:53;;;;;;;4.30;3.13;;;;;;;0.96;95.87;101246.97;5037599;28;98022;-29
2023/01/20 04:01:33;;;;;;;4.05;2.92;;;;;;;0.95;95.97;101245.19;5036099;28;101009;-28
2023/01/20 04:03:59;;;;;;;3.45;2.92;;;;;;;0.94;96.19;101247.91;5035980;28;96670;-29
2023/01/20 04:06:27;;;;;;;7.38;3.70;;;;;;;0.93;96.05;101243.44;5036189;28;96869;-29
2023/01/20 04:08:57;;;;;;;4.07;3.38;;;;;;;0.90;96.63;101244.38;5035811;28;100538;-31
2023/01/20 04:11:23;;;;;;;3.88;2.47;;;;;;;0.94;96.67;101256.78;5037363;28;97464;-29
2023/01/20 04:13:49;;;;;;;7.72;3.72;;;;;;;0.95;96.59;101261.19;5036147;28;96604;-28
2023/01/20 04:16:17;;;;;;;5.82;2.85;;;;;;;0.96;97.30;101249.63;5037387;27;96888;-28
2023/01/20 04:18:46;;;;;;;6.32;4.03;;;;;;;0.97;96.98;101255.84;5035652;28;100766;-29
2023/01/20 04:21:23;;;;;;;8.88;3.15;;;;;;;0.95;96.83;101257.66;5035972;28;100650;-28
2023/01/20 04:23:56;;;;;;;5.93;3.42;;;;;;;0.96;97.17;101254.97;5037123;27;96562;-28
2023/01/20 04:26:21;;;;;;;7.07;2.95;;;;;;;0.99;96.51;101259.38;5036301;28;96643;-29
2023/01/20 04:28:46;;;;;;;6.35;4.25;;;;;;;0.97;96.96;101255.84;5036818;27;97880;-28
2023/01/20 04:31:13;;;;;;;9.65;4.22;;;;;;;0.98;97.03;101257.63;5037185;27;97316;-29
2023/01/20 04:33:39;;;;;;;4.97;2.85;;;;;;;1.00;96.83;101258.44;5037116;27;96722;-29
2023/01/20 04:36:06;;;;;;;9.13;4.55;;;;;;;0.93;97.57;101255.03;5037635;27;96814;-28
2023/01/20 04:38:32;;;;;;;4.03;1.45;;;;;;;0.88;98.39;101250.66;5035504;28;99243;-29
2023/01/20 04:40:57;;;;;;;11.82;3.28;;;;;;;0.89;98.37;101253.31;5035372;28;101138;-28
2023/01/20 04:43:22;;;;;;;5.70;3.38;;;;;;;0.84;99.10;101250.69;5037843;27;96643;-28
2023/01/20 04:45:47;;;;;;;6.45;3.83;;;;;;;0.85;98.12;101256.91;5037739;27;96930;-28
2023/01/20 04:48:13;;;;;;;8.15;4.93;;;;;;;0.89;97.28;101263.97;5036281;27;97383;-29
2023/01/20 04:50:40;;;;;;;4.47;3.88;;;;;;;0.90;97.36;101256.84;5036635;27;99113;-28
2023/01/20 04:53:06;;;;;;;6.05;3.90;;;;;;;0.88;98.00;101253.31;5035321;28;96530;-29
2023/01/20 04:55:32;;;;;;;6.15;4.80;;;;;;;0.89;97.99;101266.63;5035617;28;96789;-29
2023/01/20 04:57:58;;;;;;;6.15;3.53;;;;;;;0.92;97.80;101268.38;5035183;28;101159;-29
2023/01/20 05:00:23;;;;;;;12.77;4.85;;;;;;;0.87;98.28;101272.91;5036508;27;99674;-28
2023/01/20 05:02:49;;;;;;;9.45;4.85;;;;;;;0.87;98.49;101271.09;5036853;28;96696;-28
2023/01/20 05:05:14;;;;;;;4.18;2.00;;;;;;;0.85;97.81;101273.78;5037024;27;96768;-29
2023/01/20 05:07:40;;;;;;;5.80;3.53;;;;;;;0.87;98.69;101267.56;5036611;28;97866;-28
2023/01/20 05:10:06;;;;;;;7.40;4.45;;;;;;;0.87;98.72;101275.56;5037118;27;97800;-29
2023/01/20 05:12:31;;;;;;;8.05;5.25;;;;;;;0.90;98.54;101275.50;5035651;28;96796;-29
2023/01/20 05:14:56;;;;;;;12.32;5.60;;;;;;;0.90;98.23;101288.84;5036868;27;96778;-30
2023/01/20 05:17:22;;;;;;;5.50;3.63;;;;;;;0.90;98.13;101270.19;5036021;27;99226;-28
2023/01/20 05:19:47;;;;;;;9.77;3.92;;;;;;;0.92;98.58;101277.25;5036692;27;97356;-28
2023/01/20 05:22:12;;;;;;;9.30;4.50;;;;;;;0.94;98.15;101283.44;5036918;27;96435;-28
2023/01/20 05:24:38;;;;;;;4.57;2.22;;;;;;;0.88;98.71;101283.53;5035037;28;97066;-28
2023/01/20 05:27:03;;;;;;;7.50;3.67;;;;;;;0.91;98.69;101285.28;5036381;27;97473;-28
2023/01/20 05:29:29;;;;;;;12.93;4.55;;;;;;;0.92;98.66;101295.03;5036751;27;97256;-28
2023/01/20 05:31:54;;;;;;;4.05;2.85;;;;;;;0.92;98.41;101295.03;5039511;27;96733;-28
2023/01/20 05:34:19;;;;;;;3.85;2.08;;;;;;;0.90;98.35;101299.50;5040260;27;96727;-28
2023/01/20 05:36:49;;;;;;;7.25;4.00;;;;;;;0.88;98.82;101298.66;5039726;27;97374;-29
2023/01/20 05:39:14;;;;;;;8.30;5.00;;;;;;;0.89;98.34;101287.97;5039313;27;98993;-30
2023/01/20 05:41:40;;;;;;;5.63;4.03;;;;;;;0.91;98.28;101298.63;5039705;27;96477;-28
2023/01/20 05:44:05;;;;;;;4.43;2.55;;;;;;;0.93;98.15;101296.78;5040026;27;96798;-28
2023/01/20 05:46:30;;;;;;;5.78;3.47;;;;;;;0.92;97.88;101290.59;5039429;27;97876;-28
2023/01/20 05:48:56;;;;;;;6.72;4.00;;;;;;;0.92;97.45;101285.25;5039759;27;97243;-30
2023/01/20 05:51:21;;;;;;;5.78;2.75;;;;;;;0.92;97.17;101293.25;5040037;28;96511;-28
2023/01/20 05:53:46;;;;;;;2.22;1.75;;;;;;;0.91;97.38;101287.97;5040049;27;96739;-29
2023/01/20 05:56:14;;;;;;;6.78;4.20;;;;;;;0.91;97.28;101304.84;5039236;27;99503;-29
2023/01/20 05:58:40;;;;;;;5.72;2.97;;;;;;;0.81;97.92;101297.84;5038390;28;98918;-28
2023/01/20 06:01:07;;;;;;;6.72;3.75;;;;;;;0.76;98.51;101294.38;5039920;28;96536;-30
2023/01/20 06:03:33;;;;;;;4.53;3.38;;;;;;;0.74;98.49;101299.75;5038404;28;96902;-29
2023/01/20 06:06:04;;;;;;;6.93;3.95;;;;;;;0.71;99.40;101297.09;5038149;27;97976;-30
2023/01/20 06:08:30;;;;;;;4.03;2.47;;;;;;;0.70;99.59;101294.47;5037280;28;102234;-28
2023/01/20 06:10:55;;;;;;;6.18;3.30;;;;;;;0.70;99.23;101300.69;5039778;27;96764;-30
2023/01/20 06:13:21;;;;;;;4.72;3.08;;;;;;;0.72;98.45;101293.53;5039395;27;97169;-28
2023/01/20 06:15:53;;;;;;;4.63;2.72;;;;;;;0.71;99.09;101291.75;5037364;28;100943;-28
2023/01/20 06:18:20;;;;;;;7.60;4.15;;;;;;;0.71;99.00;101286.44;5037614;28;98771;-28
2023/01/20 06:20:46;;;;;;;2.90;2.42;;;;;;;0.71;99.10;101288.22;5038144;28;96534;-28
2023/01/20 06:23:12;;;;;;;6.05;3.83;;;;;;;0.73;98.68;101305.97;5037765;28;96863;-28
2023/01/20 06:25:37;;;;;;;2.95;1.83;;;;;;;0.68;99.81;101304.28;5038769;27;97326;-29
2023/01/20 06:28:03;;;;;;;6.53;4.00;;;;;;;0.71;100.00;101309.53;5036132;27;99143;-31
2023/01/20 06:30:28;;;;;;;5.97;2.88;;;;;;;0.69;100.00;101306.00;5036618;27;96805;-29
2023/01/20 06:32:53;;;;;;;2.35;1.63;;;;;;;0.65;99.68;101301.66;5036995;27;96898;-31
2023/01/20 06:35:19;;;;;;;6.13;2.97;;;;;;;0.65;99.92;101299.88;5036302;27;97417;-29
2023/01/20 06:37:45;;;;;;;4.15;2.58;;;;;;;0.65;99.90;101293.66;5034690;28;100735;-29
2023/01/20 06:40:10;;;;;;;2.85;2.50;;;;;;;0.59;99.63;101282.16;5036772;27;96921;-32
2023/01/20 06:42:36;;;;;;;2.50;1.65;;;;;;;0.61;99.67;101293.69;5038750;27;96847;-29
2023/01/20 06:45:01;;;;;;;8.75;4.20;;;;;;;0.62;99.18;101298.13;5038338;27;99169;-28
2023/01/20 06:47:27;;;;;;;3.15;1.70;;;;;;;0.63;99.25;101288.34;5038732;27;98827;-28
2023/01/20 06:49:52;;;;;;;4.53;2.88;;;;;;;0.59;99.60;101291.94;5039032;27;96695;-28
2023/01/20 06:52:17;;;;;;;2.42;1.70;;;;;;;0.61;99.58;101292.81;5039407;27;96783;-28
2023/01/20 06:54:42;;;;;;;3.70;2.17;;;;;;;0.61;99.75;101295.47;5038059;27;97896;-29
2023/01/20 06:57:08;;;;;;;3.88;2.20;;;;;;;0.60;100.00;101297.25;5038529;27;97444;-28
2023/01/20 06:59:33;;;;;;;3.17;2.40;;;;;;;0.61;100.00;101293.69;5038952;27;96639;-29
2023/01/20 07:01:58;;;;;;;3.72;2.00;;;;;;;0.59;99.84;101292.81;5038682;27;96815;-29
2023/01/20 07:04:24;;;;;;;5.55;1.98;;;;;;;0.59;99.72;101300.81;5038379;27;97435;-29
2023/01/20 07:06:49;;;;;;;4.72;2.63;;;;;;;0.55;100.00;101306.19;5038005;27;99162;-28
2023/01/20 07:09:14;;;;;;;4.80;2.38;;;;;;;0.56;100.00;101318.63;5038771;27;96622;-28
2023/01/20 07:11:40;;;;;;;9.13;2.92;;;;;;;0.56;100.00;101316.84;5039125;27;96919;-29
2023/01/20 07:14:06;;;;;;;3.38;2.30;;;;;;;0.57;100.00;101318.63;5037974;27;97895;-28
2023/01/20 07:16:32;;;;;;;5.03;2.83;;;;;;;0.59;100.00;101331.91;5036818;28;100901;-29
2023/01/20 07:18:58;;;;;;;3.75;2.45;;;;;;;0.61;100.00;101330.13;5038175;27;96581;-28
2023/01/20 07:21:23;;;;;;;5.95;3.30;;;;;;;0.62;99.27;101327.44;5038690;28;96806;-30
2023/01/20 07:23:49;;;;;;;6.03;2.35;;;;;;;0.61;99.88;101324.78;5037102;27;99328;-29
2023/01/20 07:26:17;;;;;;;4.88;2.13;;;;;;;0.60;100.00;101331.91;5037968;28;97865;-28
2023/01/20 07:28:43;;;;;;;2.13;1.60;;;;;;;0.59;100.00;101322.13;5038088;27;96714;-29
2023/01/20 07:31:11;;;;;;;4.03;2.15;;;;;;;0.60;100.00;101315.91;5038504;27;96786;-28
2023/01/20 07:33:37;;;;;;;4.18;2.58;;;;;;;0.66;100.00;101328.28;5036237;28;101276;-28
2023/01/20 07:36:04;;;;;;;3.88;2.35;;;;;;;0.68;100.00;101322.94;5036620;28;101539;-29
2023/01/20 07:38:29;;;;;;;4.13;2.08;;;;;;;0.74;100.00;101323.72;5038296;27;96607;-29
2023/01/20 07:40:59;;;;;;;3.65;2.70;;;;;;;0.70;99.81;101330.00;5038282;27;96749;-28
2023/01/20 07:43:25;;;;;;;2.55;1.67;;;;;;;0.75;99.75;101336.16;5035842;28;98900;-28
2023/01/20 07:45:56;;;;;;;8.15;4.05;;;;;;;0.75;99.70;101346.81;5037874;27;97786;-29
2023/01/20 07:48:23;;;;;;;4.57;2.08;;;;;;;0.75;100.00;101354.81;5036635;28;96873;-28
2023/01/20 07:50:56;;;;;;;4.05;3.05;;;;;;;0.71;100.00;101338.88;5036568;28;96804;-28
2023/01/20 07:53:21;;;;;;;1.80;1.63;;;;;;;0.71;100.00;101345.06;5035685;28;101112;-29
2023/01/20 07:55:47;;;;;;;3.67;2.40;;;;;;;0.68;100.00;101347.78;5037231;27;97353;-28
2023/01/20 07:58:12;;;;;;;4.28;2.05;;;;;;;0.70;100.00;101354.00;5037994;27;96710;-28
2023/01/20 08:00:37;;;;;;;10.45;3.80;;;;;;;0.68;100.00;101361.13;5038519;27;96764;-29
2023/01/20 08:03:03;;;;;;;2.92;2.58;;;;;;;0.64;100.00;101348.72;5037105;27;99528;-28
2023/01/20 08:05:30;;;;;;;5.30;1.98;;;;;;;0.70;100.00;101353.13;5037600;28;97864;-29
2023/01/20 08:07:56;;;;;;;5.10;4.00;;;;;;;0.69;100.00;101376.22;5035965;28;96637;-28
2023/01/20 08:10:21;;;;;;;6.38;3.33;;;;;;;0.67;100.00;101364.72;5037593;27;97131;-28
2023/01/20 08:12:46;;;;;;;4.25;2.78;;;;;;;0.69;100.00;101378.00;5037222;27;98047;-28
2023/01/20 08:15:12;;;;;;;4.68;2.55;;;;;;;0.66;100.00;101357.59;5037205;28;99565;-28
2023/01/20 08:17:37;;;;;;;2.60;2.20;;;;;;;0.63;100.00;101357.63;5037715;27;96568;-29
2023/01/20 08:20:03;;;;;;;4.53;3.85;;;;;;;0.63;100.00;101357.63;5038054;27;96822;-28
2023/01/20 08:22:28;;;;;;;3.83;1.75;;;;;;;0.68;100.00;101366.44;5036252;27;99102;-28
2023/01/20 08:24:54;;;;;;;3.13;2.25;;;;;;;0.71;100.00;101386.84;5036071;28;101042;-29
2023/01/20 08:27:19;;;;;;;3.28;1.75;;;;;;;0.71;100.00;101390.41;5037318;27;96544;-28
2023/01/20 08:29:44;;;;;;;5.78;2.80;;;;;;;0.77;100.00;101400.13;5037682;27;96786;-28
2023/01/20 08:32:10;;;;;;;4.68;3.47;;;;;;;0.79;100.00;101415.19;5036281;27;99463;-28
2023/01/20 08:34:35;;;;;;;9.80;2.17;;;;;;;0.87;100.00;101419.56;5036821;27;99095;-28
2023/01/20 08:37:01;;;;;;;2.45;1.77;;;;;;;0.85;100.00;101412.44;5037436;27;96740;-28
2023/01/20 08:39:26;;;;;;;6.03;2.53;;;;;;;0.92;99.82;101418.59;5036997;27;96820;-28
2023/01/20 08:41:51;;;;;;;8.13;2.92;;;;;;;0.96;99.90;101422.13;5037018;27;97422;-28
2023/01/20 08:44:17;;;;;;;5.65;2.60;;;;;;;0.96;99.50;101408.78;5036978;27;98503;-28
2023/01/20 08:46:43;;;;;;;3.38;2.50;;;;;;;0.93;99.23;101408.78;5035838;28;96538;-29
2023/01/20 08:49:13;;;;;;;2.15;1.75;;;;;;;0.95;99.11;101405.22;5037455;28;96800;-28
2023/01/20 08:51:38;;;;;;;3.65;2.47;;;;;;;0.98;98.97;101407.84;5035430;28;100946;-28
2023/01/20 08:54:04;;;;;;;3.00;2.60;;;;;;;1.00;98.69;101406.06;5036753;27;97785;-29
2023/01/20 08:56:30;;;;;;;3.30;2.03;;;;;;;1.00;98.43;101397.16;5036837;28;96499;-29
2023/01/20 08:58:59;;;;;;;2.90;1.80;;;;;;;1.01;98.51;101407.81;5037112;27;96800;-28
2023/01/20 09:01:27;;;;;;;3.70;2.42;;;;;;;1.03;98.39;101410.47;5036525;28;99388;-28
2023/01/20 09:03:55;;;;;;;5.38;3.88;;;;;;;1.03;98.47;101410.47;5035210;28;100908;-28
2023/01/20 09:06:21;;;;;;;4.00;1.95;;;;;;;1.05;98.62;101409.53;5037535;27;96583;-29
2023/01/20 09:08:50;;;;;;;3.22;2.55;;;;;;;1.04;98.42;101417.56;5040446;27;97093;-28
2023/01/20 09:11:19;;;;;;;4.15;2.88;;;;;;;1.01;98.47;101412.28;5039841;27;99889;-28
2023/01/20 09:13:45;;;;;;;7.90;3.35;;;;;;;0.99;97.97;101412.28;5038992;28;100985;-28
2023/01/20 09:16:15;;;;;;;4.88;2.80;;;;;;;0.97;98.51;101410.53;5039173;28;97016;-28
2023/01/20 09:18:41;;;;;;;5.38;3.42;;;;;;;0.99;98.66;101422.06;5040701;28;96487;-28
2023/01/20 09:21:08;;;;;;;5.22;2.88;;;;;;;0.96;98.51;101423.00;5037868;28;100923;-28
2023/01/20 09:23:35;;;;;;;4.78;4.15;;;;;;;0.95;98.77;101412.34;5037785;28;100655;-29
2023/01/20 09:26:03;;;;;;;5.95;4.38;;;;;;;0.94;99.09;101414.13;5038858;28;96542;-28
2023/01/20 09:28:28;;;;;;;4.97;2.92;;;;;;;0.92;99.29;101407.03;5040209;27;96889;-30
2023/01/20 09:31:03;;;;;;;6.68;3.50;;;;;;;0.92;100.00;101420.38;5039618;27;99448;-29
2023/01/20 09:33:28;;;;;;;8.35;4.43;;;;;;;0.91;100.00;101416.84;5039483;27;99154;-28
2023/01/20 09:35:55;;;;;;;3.45;2.47;;;;;;;0.91;100.00;101423.97;5038753;28;96653;-30
2023/01/20 09:44:10;;;;;;;1.65;1.33;;;;;;;1.03;100.00;101426.47;5039362;28;96972;-28
2023/01/20 09:46:41;;;;;;;5.20;2.60;;;;;;;1.03;100.00;101427.34;5039425;28;96486;-29
2023/01/20 09:55:15;;;;;;;3.00;1.95;;;;;;;1.14;98.94;101453.00;5037325;28;96972;-28
2023/01/20 09:57:47;;;;;;;2.83;2.42;;;;;;;1.20;98.66;101466.25;5038358;28;96502;-29
2023/01/20 10:00:21;;;;;;;;;;;;;;;1.23;98.86;101467.09;5038862;28;96663;-28
2023/01/20 10:02:53;;;;;;;0.85;0.77;;;;;;;1.26;98.52;101468.84;5039021;28;97800;-28
2023/01/20 10:05:22;;;;;;;5.45;1.65;;;;;;;1.21;98.91;101455.56;5038347;28;100777;-29
2023/01/20 10:07:57;;;;;;;2.65;2.15;;;;;;;1.25;99.13;101462.63;5038304;28;96592;-30
2023/01/20 10:10:26;;;;;;;2.67;2.13;;;;;;;1.23;98.63;101458.22;5040019;27;96509;-29
2023/01/20 10:13:13;;;;;;;7.85;3.35;;;;;;;1.21;98.97;101465.34;5037197;28;100822;-28
2023/01/20 10:15:45;;;;;;;1.42;1.33;;;;;;;1.14;100.00;101458.31;5039190;28;97318;-29
2023/01/20 10:18:55;;;;;;;3.13;1.25;;;;;;;1.16;99.95;101459.19;5037786;28;96678;-29
2023/01/20 10:21:44;;;;;;;1.20;1.10;;;;;;;1.20;100.00;101455.59;4957492;28;96896;-30
2023/01/20 10:24:15;;;;;;;4.90;3.20;;;;;;;1.23;99.81;101460.88;5033756;27;97644;-28
2023/01/20 10:27:02;;;;;;;4.13;2.08;;;;;;;1.26;99.69;101453.72;5037471;28;101273;-29
2023/01/20 10:29:37;;;;;;;3.35;2.80;;;;;;;1.31;99.85;101460.78;5037898;28;96584;-27
2023/01/20 10:32:12;;;;;;;4.25;2.05;;;;;;;1.33;100.00;101454.50;5038238;28;96862;-28
2023/01/20 10:34:45;;;;;;;1.33;1.00;;;;;;;1.42;100.00;101466.84;5037390;28;100832;-28
2023/01/20 10:37:14;;;;;;;6.00;1.90;;;;;;;1.45;100.00;101458.78;5037332;28;100900;-29
2023/01/20 10:40:14;;;;;;;4.85;3.22;;;;;;;1.48;99.81;101448.97;5037357;28;96603;-28
2023/01/20 10:42:40;;;;;;;3.13;2.22;;;;;;;1.46;100.00;101448.09;5037808;28;96667;-29
2023/01/20 10:45:37;;;;;;;3.08;2.33;;;;;;;1.53;99.91;101440.91;5037202;28;101002;-28
2023/01/20 10:48:21;;;;;;;2.55;1.48;;;;;;;1.67;99.92;101451.38;5037214;28;100751;-28
2023/01/20 10:51:08;;;;;;;3.97;2.20;;;;;;;1.80;99.44;101446.72;5037730;28;96575;-28
2023/01/20 10:54:04;;;;;;;1.02;0.95;;;;;;;1.94;99.69;101449.19;5037622;28;96697;-28
2023/01/20 10:56:33;;;;;;;2.78;1.98;;;;;;;2.00;98.96;101441.03;5038573;28;97488;-28
2023/01/20 10:59:06;;;;;;;1.25;1.15;;;;;;;1.99;98.94;101440.16;5038569;28;97841;-28
2023/01/20 11:01:32;;;;;;;1.50;1.17;;;;;;;2.02;98.10;101434.75;5037382;28;96683;-28
2023/01/20 11:03:57;;;;;;;3.38;1.98;;;;;;;2.05;98.37;101431.16;5039134;28;96724;-29
2023/01/20 11:06:25;;;;;;;1.75;1.65;;;;;;;2.04;98.11;101424.94;5037688;27;99416;-28
2023/01/20 11:08:51;;;;;;;1.45;1.25;;;;;;;2.08;97.75;101424.00;5036678;28;101236;-28
2023/01/20 11:11:21;;;;;;;5.43;2.60;;;;;;;2.17;97.86;101433.66;5037441;28;97183;-29
2023/01/20 11:13:50;;;;;;;2.00;1.38;;;;;;;2.21;97.88;101434.47;5037198;28;96896;-28
2023/01/20 11:16:25;;;;;;;2.05;1.60;;;;;;;2.19;98.22;101439.81;5036831;28;101171;-28
2023/01/20 11:19:08;;;;;;;3.65;1.95;;;;;;;2.20;97.65;101457.63;5036633;28;100625;-28
2023/01/20 11:21:35;;;;;;;1.95;1.80;;;;;;;2.21;98.13;101448.69;5038664;27;96613;-28
2023/01/20 11:24:22;;;;;;;1.23;1.13;;;;;;;2.18;98.71;101446.09;5036297;28;96871;-28
2023/01/20 11:26:47;;;;;;;1.13;1.02;;;;;;;2.18;98.94;101447.88;5037631;28;99358;-28
2023/01/20 11:29:12;;;;;;;4.05;2.05;;;;;;;2.20;99.19;101454.97;5037511;27;97269;-28
2023/01/20 11:31:43;;;;;;;2.85;1.25;;;;;;;2.21;98.76;101443.34;5037712;27;96461;-28
2023/01/20 11:34:34;;;;;;;5.75;2.92;;;;;;;2.20;99.42;101456.75;5036837;28;96707;-29
2023/01/20 11:37:02;;;;;;;2.75;1.42;;;;;;;2.19;98.74;101444.28;5037878;27;97941;-28
2023/01/20 11:39:34;;;;;;;2.65;1.55;;;;;;;2.15;98.42;101443.47;5037506;27;99298;-28
2023/01/20 11:42:24;;;;;;;4.90;1.98;;;;;;;2.16;98.47;101441.69;5038175;27;96490;-29
2023/01/20 11:44:51;;;;;;;2.85;1.98;;;;;;;2.15;98.24;101443.47;5037977;27;96496;-29
2023/01/20 11:47:30;;;;;;;2.38;1.55;;;;;;;2.16;98.59;101452.38;5037610;27;97968;-28
2023/01/20 11:50:07;;;;;;;4.57;3.42;;;;;;;2.15;98.63;101451.50;5036364;28;100906;-28
2023/01/20 11:52:35;;;;;;;4.50;3.08;;;;;;;2.16;98.88;101449.69;5037884;27;96620;-28